Time;durP1;ratioP1;P1;durP2;ratioP2;P2;SDS_P1;SDS_P2;PMS_P1;PMS_P2;Temp;Humidity;BMP_temperature;BMP_pressure;BME280_temperature;BME280_humidity;BME280_pressure;Samples;Min_cycle;Max_cycle;Signal;HPM_P1;HPM_P2
2022/07/13 00:02:17;;;;;;;;;;;;;;;15.75;56.12;100994.56;1763970;81;20854;-78
2022/07/13 00:04:43;;;;;;;;;;;;;;;15.68;56.23;100990.96;1766559;81;20195;-78
2022/07/13 00:07:09;;;;;;;;;;;;;;;15.66;56.34;100988.45;1754630;81;20162;-78
2022/07/13 00:09:35;;;;;;;;;;;;;;;15.64;56.48;100980.25;1748633;80;20262;-78
2022/07/13 00:12:01;;;;;;;;;;;;;;;15.58;56.58;100983.70;1758437;80;22153;-77
2022/07/13 00:14:26;;;;;;;;;;;;;;;15.53;56.69;100984.77;1766780;81;20175;-77
2022/07/13 00:16:52;;;;;;;;;;;;;;;15.48;56.82;100983.47;1751287;81;20814;-77
2022/07/13 00:19:18;;;;;;;;;;;;;;;15.47;56.92;100984.98;1764329;81;20624;-77
2022/07/13 00:21:44;;;;;;;;;;;;;;;15.41;57.00;100981.70;1757898;81;20234;-78
2022/07/13 00:24:09;;;;;;;;;;;;;;;15.36;57.13;100983.60;1751367;81;21065;-77
2022/07/13 00:26:35;;;;;;;;;;;;;;;15.31;57.26;100973.91;1751601;81;20775;-78
2022/07/13 00:29:01;;;;;;;;;;;;;;;15.25;57.37;100980.03;1773682;80;20273;-78
2022/07/13 00:31:27;;;;;;;;;;;;;;;15.20;57.48;100978.94;1772004;80;20142;-78
2022/07/13 00:33:53;;;;;;;;;;;;;;;15.16;57.61;100975.79;1766835;80;20151;-78
2022/07/13 00:36:19;;;;;;;;;;;;;;;15.10;57.75;100976.51;1762193;80;21956;-77
2022/07/13 00:38:44;;;;;;;;;;;;;;;15.09;57.87;100980.23;1776668;80;20226;-77
2022/07/13 00:41:10;;;;;;;;;;;;;;;15.06;58.00;100977.89;1772023;80;20281;-78
2022/07/13 00:43:36;;;;;;;;;;;;;;;15.03;58.10;100973.39;1754886;80;20228;-77
2022/07/13 00:46:02;;;;;;;;;;;;;;;14.99;58.24;100971.08;1756003;80;20775;-77
2022/07/13 00:48:28;;;;;;;;;;;;;;;14.95;58.34;100967.62;1749322;80;21110;-78
2022/07/13 00:50:54;;;;;;;;;;;;;;;14.90;58.43;100965.48;1739620;80;20254;-78
2022/07/13 00:53:20;;;;;;;;;;;;;;;14.89;58.53;100958.95;1756776;80;20733;-77
2022/07/13 00:55:46;;;;;;;;;;;;;;;14.87;58.67;100959.65;1769708;80;20162;-77
2022/07/13 00:58:12;;;;;;;;;;;;;;;14.84;58.78;100955.48;1767178;80;20178;-77
2022/07/13 01:00:37;;;;;;;;;;;;;;;14.84;58.89;100954.15;1765000;80;21085;-77
2022/07/13 01:03:03;;;;;;;;;;;;;;;14.85;59.05;100949.58;1778926;80;20246;-77
2022/07/13 01:05:29;;;;;;;;;;;;;;;14.84;59.16;100949.28;1777548;80;20680;-77
2022/07/13 01:07:55;;;;;;;;;;;;;;;14.84;59.31;100955.48;1771870;80;20167;-77
2022/07/13 01:10:20;;;;;;;;;;;;;;;14.84;59.49;100950.13;1774396;80;20139;-77
2022/07/13 01:12:46;;;;;;;;;;;;;;;14.85;59.60;100956.30;1773423;80;21972;-77
2022/07/13 01:15:12;;;;;;;;;;;;;;;14.86;59.78;100958.81;1765769;80;20236;-77
2022/07/13 01:17:38;;;;;;;;;;;;;;;14.89;59.90;100955.75;1764989;80;20202;-77
2022/07/13 01:20:05;;;;;;;;;;;;;;;14.89;60.06;100957.09;1774933;80;20724;-77
2022/07/13 01:22:42;;;;;;;;;;;;;;;14.88;60.19;100956.77;1765717;80;20492;-77
2022/07/13 01:25:09;;;;;;;;;;;;;;;14.87;60.33;100951.59;1765379;80;21153;-78
2022/07/13 01:27:36;;;;;;;;;;;;;;;14.89;60.50;100953.57;1766068;80;20464;-77
2022/07/13 01:30:03;;;;;;;;;;;;;;;14.87;60.61;100954.28;1749013;81;20144;-77
2022/07/13 01:32:29;;;;;;;;;;;;;;;14.86;60.72;100949.91;1757146;81;20196;-77
2022/07/13 01:34:55;;;;;;;;;;;;;;;14.82;60.81;100945.92;1757005;81;20183;-77
2022/07/13 01:37:20;;;;;;;;;;;;;;;14.79;60.92;100944.95;1750385;80;21122;-77
2022/07/13 01:39:46;;;;;;;;;;;;;;;14.76;61.00;100937.27;1747920;81;20850;-77
2022/07/13 01:42:12;;;;;;;;;;;;;;;14.74;61.08;100929.92;1754816;80;20178;-77
2022/07/13 01:44:38;;;;;;;;;;;;;;;14.74;61.14;100933.95;1746319;80;20234;-77
2022/07/13 01:47:08;;;;;;;;;;;;;;;14.72;61.21;100930.59;1755212;81;20167;-77
2022/07/13 01:49:34;;;;;;;;;;;;;;;14.73;61.33;100930.93;1753271;80;21124;-77
2022/07/13 01:52:00;;;;;;;;;;;;;;;14.72;61.41;100929.25;1734851;81;20148;-77
2022/07/13 01:54:26;;;;;;;;;;;;;;;14.71;61.51;100923.55;1755025;80;20206;-77
2022/07/13 01:56:52;;;;;;;;;;;;;;;14.70;61.61;100923.25;1747552;81;20175;-77
2022/07/13 01:59:18;;;;;;;;;;;;;;;14.67;61.70;100919.06;1743961;80;20294;-77
2022/07/13 02:01:44;;;;;;;;;;;;;;;14.66;61.77;100913.38;1755878;80;22117;-77
2022/07/13 02:04:10;;;;;;;;;;;;;;;14.67;61.83;100914.22;1756445;80;20186;-77
2022/07/13 02:06:36;;;;;;;;;;;;;;;14.66;61.89;100912.55;1742577;81;20190;-77
2022/07/13 02:09:03;;;;;;;;;;;;;;;14.65;61.95;100916.23;1746664;81;20762;-77
2022/07/13 02:11:28;;;;;;;;;;;;;;;14.64;62.03;100911.87;1756598;81;20493;-77
2022/07/13 02:13:54;;;;;;;;;;;;;;;14.65;62.10;100913.05;1750106;81;21045;-77
2022/07/13 02:16:21;;;;;;;;;;;;;;;14.67;62.18;100915.56;1754442;80;20183;-77
2022/07/13 02:18:47;;;;;;;;;;;;;;;14.70;62.23;100917.88;1742890;81;20163;-77
2022/07/13 02:21:13;;;;;;;;;;;;;;;14.73;62.36;100912.98;1752048;80;20167;-77
2022/07/13 02:23:39;;;;;;;;;;;;;;;14.75;62.46;100910.92;1753400;81;20768;-77
2022/07/13 02:26:05;;;;;;;;;;;;;;;14.75;62.52;100907.41;1735505;80;20619;-77
2022/07/13 02:28:31;;;;;;;;;;;;;;;14.74;62.65;100903.88;1758132;80;20257;-77
2022/07/13 02:30:57;;;;;;;;;;;;;;;14.72;62.69;100896.53;1757500;80;20218;-77
2022/07/13 02:33:22;;;;;;;;;;;;;;;14.72;62.74;100905.93;1756320;80;20476;-77
2022/07/13 02:35:49;;;;;;;;;;;;;;;14.68;62.80;100903.79;1772247;80;20246;-77
2022/07/13 02:38:15;;;;;;;;;;;;;;;14.68;62.87;100899.26;1747002;80;21085;-77
2022/07/13 02:40:41;;;;;;;;;;;;;;;14.68;62.88;100897.08;1747013;80;20217;-77
2022/07/13 02:43:07;;;;;;;;;;;;;;;14.67;62.94;100908.86;1743560;80;20272;-77
2022/07/13 02:45:33;;;;;;;;;;;;;;;14.68;63.01;100910.50;1772801;80;20164;-77
2022/07/13 02:47:59;;;;;;;;;;;;;;;14.69;63.07;100909.48;1764257;80;20857;-77
2022/07/13 02:50:25;;;;;;;;;;;;;;;14.71;63.14;100906.09;1752291;80;21378;-77
2022/07/13 02:52:52;;;;;;;;;;;;;;;14.72;63.23;100900.56;1773832;80;20826;-77
2022/07/13 02:55:17;;;;;;;;;;;;;;;14.74;63.33;100900.39;1774570;80;20474;-77
2022/07/13 02:57:43;;;;;;;;;;;;;;;14.77;63.38;100898.67;1773935;80;20225;-77
2022/07/13 03:00:10;;;;;;;;;;;;;;;14.81;63.48;100901.31;1771888;80;20257;-77
2022/07/13 03:02:36;;;;;;;;;;;;;;;14.85;63.57;100895.88;1756223;80;21029;-77
2022/07/13 03:05:02;;;;;;;;;;;;;;;14.89;63.64;100895.83;1772241;80;20226;-77
2022/07/13 03:07:27;;;;;;;;;;;;;;;14.92;63.68;100895.45;1775554;80;20183;-77
2022/07/13 03:09:54;;;;;;;;;;;;;;;14.95;63.70;100889.73;1763048;80;20547;-77
2022/07/13 03:12:20;;;;;;;;;;;;;;;15.00;63.73;100885.97;1756337;80;20503;-77
2022/07/13 03:14:45;;;;;;;;;;;;;;;15.06;63.77;100889.23;1752106;80;21175;-77
2022/07/13 03:17:11;;;;;;;;;;;;;;;15.11;63.78;100886.84;1762343;80;20169;-77
2022/07/13 03:19:37;;;;;;;;;;;;;;;15.19;63.80;100889.94;1771216;80;20167;-77
2022/07/13 03:22:04;;;;;;;;;;;;;;;15.23;63.79;100886.70;1766931;80;20153;-77
2022/07/13 03:24:30;;;;;;;;;;;;;;;15.26;63.84;100881.45;1769981;80;20176;-77
2022/07/13 03:26:56;;;;;;;;;;;;;;;15.27;63.88;100881.24;1766063;80;22479;-77
2022/07/13 03:29:21;;;;;;;;;;;;;;;15.28;63.91;100887.45;1777229;80;20566;-77
2022/07/13 03:31:47;;;;;;;;;;;;;;;15.28;63.93;100885.60;1776823;80;20277;-77
2022/07/13 03:34:13;;;;;;;;;;;;;;;15.29;63.97;100894.00;1747701;80;20173;-77
2022/07/13 03:36:39;;;;;;;;;;;;;;;15.30;63.99;100902.39;1769228;80;20755;-78
2022/07/13 03:39:05;;;;;;;;;;;;;;;15.31;63.99;100893.80;1778227;80;20503;-77
2022/07/13 03:41:31;;;;;;;;;;;;;;;15.34;64.00;100890.22;1743786;80;20268;-77
2022/07/13 03:43:56;;;;;;;;;;;;;;;15.41;63.99;100897.84;1773682;80;20254;-77
2022/07/13 03:46:22;;;;;;;;;;;;;;;15.48;63.98;100894.75;1778866;80;20735;-77
2022/07/13 03:48:48;;;;;;;;;;;;;;;16.02;64.40;100894.28;1771925;80;20210;-77
2022/07/13 03:51:14;;;;;;;;;;;;;;;17.33;64.16;100889.78;1773435;80;21096;-78
2022/07/13 03:53:40;;;;;;;;;;;;;;;18.05;63.68;100891.83;1777198;80;20199;-78
2022/07/13 03:56:06;;;;;;;;;;;;;;;19.09;63.02;100886.54;1775160;80;20735;-77
2022/07/13 03:58:32;;;;;;;;;;;;;;;18.64;61.60;100890.51;1764405;80;20187;-78
2022/07/13 04:00:58;;;;;;;;;;;;;;;18.03;61.55;100883.12;1772990;80;20258;-78
2022/07/13 04:03:24;;;;;;;;;;;;;;;17.79;61.72;100890.46;1730410;82;21116;-78
2022/07/13 04:05:49;;;;;;;;;;;;;;;18.75;62.07;100894.44;1771640;80;20265;-77
2022/07/13 04:08:15;;;;;;;;;;;;;;;19.42;60.95;100888.08;1777069;80;20354;-77
2022/07/13 04:10:41;;;;;;;;;;;;;;;18.98;60.15;100883.14;1778957;80;20222;-77
2022/07/13 04:13:07;;;;;;;;;;;;;;;19.27;60.14;100887.52;1776113;80;20151;-77
2022/07/13 04:15:32;;;;;;;;;;;;;;;19.29;59.89;100890.82;1777294;80;21720;-77
2022/07/13 04:17:58;;;;;;;;;;;;;;;19.25;59.24;100900.41;1775901;80;20194;-77
2022/07/13 04:20:24;;;;;;;;;;;;;;;18.61;59.00;100900.91;1774149;80;20210;-77
2022/07/13 04:22:50;;;;;;;;;;;;;;;18.16;59.18;100904.72;1772657;80;20699;-78
2022/07/13 04:25:16;;;;;;;;;;;;;;;17.86;59.31;100900.75;1778714;80;20309;-78
2022/07/13 04:27:41;;;;;;;;;;;;;;;17.56;59.47;100902.11;1775824;80;21169;-77
2022/07/13 04:30:08;;;;;;;;;;;;;;;17.35;59.56;100901.19;1772651;80;20295;-78
2022/07/13 04:32:34;;;;;;;;;;;;;;;17.15;59.72;100897.59;1752867;80;20435;-78
2022/07/13 04:35:00;;;;;;;;;;;;;;;16.99;59.88;100893.89;1759951;81;20231;-78
2022/07/13 04:37:26;;;;;;;;;;;;;;;16.91;60.07;100888.14;1768301;80;20140;-78
2022/07/13 04:39:52;;;;;;;;;;;;;;;16.90;60.22;100892.38;1770629;81;21754;-77
2022/07/13 04:42:17;;;;;;;;;;;;;;;16.91;60.35;100887.31;1769274;81;20229;-77
2022/07/13 04:44:43;;;;;;;;;;;;;;;16.95;60.51;100892.62;1767814;81;20187;-77
2022/07/13 04:47:09;;;;;;;;;;;;;;;17.04;60.64;100889.23;1769759;81;20163;-78
2022/07/13 04:49:35;;;;;;;;;;;;;;;17.01;60.81;100895.02;1766945;81;20294;-78
2022/07/13 04:52:01;;;;;;;;;;;;;;;17.02;60.92;100896.19;1760171;80;21128;-78
2022/07/13 04:54:26;;;;;;;;;;;;;;;17.11;61.04;100899.02;1771330;81;20175;-78
2022/07/13 04:56:52;;;;;;;;;;;;;;;17.23;61.11;100901.47;1764989;81;20252;-78
2022/07/13 04:59:18;;;;;;;;;;;;;;;17.32;61.15;100898.90;1760135;81;20207;-78
2022/07/13 05:01:44;;;;;;;;;;;;;;;17.42;61.14;100902.05;1749244;80;20191;-78
2022/07/13 05:04:10;;;;;;;;;;;;;;;17.49;61.14;100889.41;1765184;81;21172;-78
2022/07/13 05:06:36;;;;;;;;;;;;;;;17.54;61.18;100893.38;1763447;81;20782;-78
2022/07/13 05:09:02;;;;;;;;;;;;;;;17.60;61.20;100903.38;1771207;81;20246;-78
2022/07/13 05:11:28;;;;;;;;;;;;;;;17.73;61.20;100904.78;1771172;81;20318;-78
2022/07/13 14:42:40;;;;;;;;;;;;;;;29.91;25.95;100569.92;1728676;81;20321;-79
2022/07/13 14:45:07;;;;;;;;;;;;;;;29.73;25.82;100563.22;1729594;81;20182;-79
2022/07/13 14:47:34;;;;;;;;;;;;;;;29.57;25.60;100569.98;1730295;81;20214;-79
2022/07/13 14:50:00;;;;;;;;;;;;;;;29.44;25.46;100565.19;1729607;81;21063;-80
2022/07/13 14:52:26;;;;;;;;;;;;;;;29.36;25.53;100565.26;1732730;81;20178;-79
2022/07/13 14:54:52;;;;;;;;;;;;;;;29.55;25.63;100568.92;1731658;81;22667;-79
2022/07/13 14:57:17;;;;;;;;;;;;;;;29.69;25.35;100557.48;1729835;81;20202;-80
2022/07/13 14:59:43;;;;;;;;;;;;;;;29.73;25.27;100554.39;1729214;81;20230;-80
2022/07/13 15:02:09;;;;;;;;;;;;;;;29.86;25.31;100562.54;1729838;81;20499;-79
2022/07/13 15:04:39;;;;;;;;;;;;;;;29.86;25.27;100558.97;1729757;81;20175;-79
2022/07/13 15:07:03;;;;;;;;;;;;;;;29.72;25.33;100568.45;1729284;81;21789;-79
2022/07/13 15:09:29;;;;;;;;;;;;;;;29.53;25.24;100566.17;1730140;81;20266;-79
2022/07/13 15:11:54;;;;;;;;;;;;;;;29.41;25.38;100565.77;1749639;81;20249;-79
2022/07/13 15:14:20;;;;;;;;;;;;;;;29.36;25.52;100561.69;1736279;82;20711;-79
2022/07/13 15:16:46;;;;;;;;;;;;;;;29.27;25.54;100556.56;1738226;82;20178;-79
2022/07/13 15:19:12;;;;;;;;;;;;;;;29.16;25.59;100562.13;1738397;82;21873;-79
2022/07/13 15:21:38;;;;;;;;;;;;;;;29.06;25.65;100571.02;1738297;82;20750;-79
2022/07/13 15:24:04;;;;;;;;;;;;;;;29.01;25.72;100570.50;1727639;82;20193;-79
2022/07/13 15:26:30;;;;;;;;;;;;;;;28.93;25.83;100568.91;1728613;82;20438;-79
2022/07/13 15:28:57;;;;;;;;;;;;;;;28.83;25.91;100572.56;1738358;82;20140;-79
2022/07/13 15:31:23;;;;;;;;;;;;;;;28.72;26.02;100573.73;1738283;82;22462;-79
2022/07/13 15:33:49;;;;;;;;;;;;;;;28.57;26.20;100573.25;1735942;82;20278;-79
2022/07/13 15:36:15;;;;;;;;;;;;;;;28.44;26.42;100570.32;1738514;82;20758;-79
2022/07/13 15:38:41;;;;;;;;;;;;;;;28.34;26.60;100573.13;1736087;82;20190;-79
2022/07/13 15:41:25;;;;;;;;;;;;;;;28.18;26.75;100573.20;1736645;82;20211;-78
2022/07/13 15:43:58;;;;;;;;;;;;;;;28.00;26.92;100565.60;1725187;83;21912;-79
2022/07/13 15:46:26;;;;;;;;;;;;;;;27.84;27.12;100568.11;1725047;83;20164;-79
2022/07/13 15:48:52;;;;;;;;;;;;;;;27.72;27.36;100569.00;1719153;83;20167;-78
2022/07/13 15:51:18;;;;;;;;;;;;;;;27.60;27.51;100569.84;1711287;83;20718;-79
2022/07/13 15:53:44;;;;;;;;;;;;;;;27.50;27.70;100568.50;1699838;83;20245;-78
2022/07/13 15:56:10;;;;;;;;;;;;;;;27.43;27.89;100567.93;1709578;83;21792;-78
2022/07/13 15:58:36;;;;;;;;;;;;;;;27.35;28.08;100573.42;1711196;83;20835;-78
2022/07/13 16:01:02;;;;;;;;;;;;;;;27.29;28.27;100566.31;1703915;83;20298;-78
2022/07/13 16:03:28;;;;;;;;;;;;;;;27.26;28.45;100574.55;1701431;83;21254;-79
2022/07/13 16:05:54;;;;;;;;;;;;;;;27.26;28.65;100570.98;1709626;83;20751;-78
2022/07/13 16:08:20;;;;;;;;;;;;;;;27.24;28.83;100567.13;1716216;83;21364;-78
2022/07/13 16:10:46;;;;;;;;;;;;;;;27.25;29.00;100564.67;1702576;83;20222;-80
2022/07/13 16:13:11;;;;;;;;;;;;;;;27.23;29.13;100561.38;1717289;83;20228;-79
2022/07/13 16:15:37;;;;;;;;;;;;;;;27.21;29.32;100563.58;1721052;83;21142;-79
2022/07/13 16:18:04;;;;;;;;;;;;;;;27.19;29.47;100560.31;1720045;83;20231;-79
2022/07/13 16:20:30;;;;;;;;;;;;;;;27.16;29.58;100558.09;1717839;83;21703;-78
2022/07/13 16:22:56;;;;;;;;;;;;;;;27.13;29.77;100561.38;1713535;83;20687;-78
2022/07/13 16:25:22;;;;;;;;;;;;;;;27.10;29.89;100555.09;1722915;83;20199;-79
2022/07/13 16:27:48;;;;;;;;;;;;;;;27.10;30.02;100564.67;1710359;83;20540;-79
2022/07/13 16:30:14;;;;;;;;;;;;;;;27.08;30.16;100560.03;1715244;81;20197;-79
2022/07/13 16:32:40;;;;;;;;;;;;;;;27.06;30.30;100558.64;1717884;83;21852;-79
2022/07/13 16:35:06;;;;;;;;;;;;;;;27.04;30.43;100552.09;1722197;83;20198;-79
2022/07/13 16:37:32;;;;;;;;;;;;;;;27.03;30.56;100558.66;1712387;83;20582;-78
2022/07/13 16:39:58;;;;;;;;;;;;;;;26.99;30.67;100550.71;1718036;83;20449;-79
2022/07/13 16:42:24;;;;;;;;;;;;;;;26.96;30.81;100548.53;1685445;84;20439;-78
2022/07/13 16:44:50;;;;;;;;;;;;;;;26.94;30.91;100542.52;1739801;81;22515;-78
2022/07/13 16:47:16;;;;;;;;;;;;;;;26.94;30.98;100549.36;1756869;80;20703;-78
2022/07/13 16:49:42;;;;;;;;;;;;;;;26.95;31.09;100555.09;1759953;81;20199;-78
2022/07/13 16:52:11;;;;;;;;;;;;;;;26.93;31.13;100549.63;1764267;81;20431;-79
2022/07/13 16:54:36;;;;;;;;;;;;;;;26.91;31.26;100549.91;1764820;81;20165;-78
2022/07/13 16:57:02;;;;;;;;;;;;;;;26.92;31.33;100549.34;1764128;81;21807;-79
2022/07/13 16:59:28;;;;;;;;;;;;;;;26.91;31.37;100549.91;1757104;81;20680;-78
2022/07/13 17:01:53;;;;;;;;;;;;;;;26.89;31.47;100552.09;1743375;81;20286;-78
2022/07/13 17:04:19;;;;;;;;;;;;;;;26.87;31.55;100548.81;1724534;82;20441;-78
2022/07/13 17:06:45;;;;;;;;;;;;;;;26.84;31.58;100543.06;1727144;83;20104;-78
2022/07/13 17:09:11;;;;;;;;;;;;;;;26.79;31.62;100543.84;1725887;82;21892;-78
2022/07/13 17:11:37;;;;;;;;;;;;;;;26.74;31.71;100538.39;1704575;83;20245;-78
2022/07/13 17:14:03;;;;;;;;;;;;;;;26.72;31.77;100540.56;1716352;83;20199;-78
2022/07/13 17:16:29;;;;;;;;;;;;;;;26.67;31.80;100536.47;1725372;83;20802;-78
2022/07/13 17:18:58;;;;;;;;;;;;;;;26.65;31.84;100535.90;1752636;81;20485;-78
2022/07/13 17:21:25;;;;;;;;;;;;;;;26.62;31.92;100535.91;1758318;81;21785;-78
2022/07/13 17:23:52;;;;;;;;;;;;;;;26.57;32.01;100540.53;1760830;80;20957;-78
2022/07/13 17:26:21;;;;;;;;;;;;;;;26.52;32.10;100533.16;1755909;81;20739;-77
2022/07/13 17:28:48;;;;;;;;;;;;;;;26.50;32.18;100533.14;1749304;81;20351;-77
2022/07/13 17:31:15;;;;;;;;;;;;;;;26.45;32.28;100533.15;1759361;81;20196;-78
2022/07/13 17:33:41;;;;;;;;;;;;;;;26.42;32.37;100536.43;1760718;81;22439;-78
2022/07/13 17:36:07;;;;;;;;;;;;;;;26.40;32.45;100534.49;1749508;81;20762;-77
2022/07/13 17:38:33;;;;;;;;;;;;;;;26.35;32.56;100526.30;1756740;81;20164;-77
2022/07/13 17:40:59;;;;;;;;;;;;;;;26.33;32.63;100532.84;1750918;81;20460;-77
2022/07/13 17:43:25;;;;;;;;;;;;;;;26.33;32.69;100522.45;1747691;81;20180;-77
2022/07/13 17:45:51;;;;;;;;;;;;;;;26.32;32.89;100524.36;1759118;81;21863;-78
2022/07/13 17:48:17;;;;;;;;;;;;;;;26.29;33.09;100529.55;1748503;81;20269;-78
2022/07/13 17:50:43;;;;;;;;;;;;;;;26.26;33.22;100529.55;1754791;81;20774;-78
2022/07/13 17:53:08;;;;;;;;;;;;;;;26.22;33.32;100527.08;1756369;81;20439;-77
2022/07/13 17:55:34;;;;;;;;;;;;;;;26.22;33.40;100524.88;1739944;81;20301;-77
2022/07/13 17:58:01;;;;;;;;;;;;;;;26.23;33.50;100524.63;1751296;81;22498;-77
2022/07/13 18:00:27;;;;;;;;;;;;;;;26.18;33.69;100523.23;1755855;81;20421;-78
2022/07/13 18:02:53;;;;;;;;;;;;;;;26.15;33.84;100523.74;1755062;81;20199;-78
2022/07/13 18:05:18;;;;;;;;;;;;;;;26.10;34.05;100516.91;1751351;81;20743;-79
2022/07/13 18:07:44;;;;;;;;;;;;;;;26.06;34.25;100514.44;1746494;81;20175;-79
2022/07/13 18:10:11;;;;;;;;;;;;;;;25.99;34.53;100512.50;1760430;81;21737;-79
2022/07/13 18:12:37;;;;;;;;;;;;;;;25.94;34.82;100510.28;1759657;81;20200;-79
2022/07/13 18:15:04;;;;;;;;;;;;;;;25.89;34.99;100506.17;1763284;81;20375;-79
2022/07/13 18:17:31;;;;;;;;;;;;;;;25.85;35.19;100505.89;1756823;81;20386;-79
2022/07/13 18:19:57;;;;;;;;;;;;;;;25.75;35.42;100504.48;1765314;81;20149;-79
2022/07/13 18:22:23;;;;;;;;;;;;;;;25.68;35.66;100495.17;1756993;81;21789;-79
2022/07/13 18:24:49;;;;;;;;;;;;;;;25.58;35.92;100505.23;1757153;81;20178;-78
2022/07/13 18:27:15;;;;;;;;;;;;;;;25.51;36.13;100508.18;1759884;80;20238;-79
2022/07/13 18:29:41;;;;;;;;;;;;;;;25.49;36.22;100504.87;1760934;81;21140;-79
2022/07/13 18:32:07;;;;;;;;;;;;;;;25.50;36.21;100510.63;1765753;81;20191;-79
2022/07/13 18:34:33;;;;;;;;;;;;;;;25.49;36.21;100505.41;1754970;81;21695;-78
2022/07/13 18:36:59;;;;;;;;;;;;;;;25.44;36.17;100503.47;1750179;81;20650;-78
2022/07/13 18:39:25;;;;;;;;;;;;;;;25.37;36.21;100496.62;1749392;81;20203;-78
2022/07/13 18:41:51;;;;;;;;;;;;;;;25.27;36.23;100495.47;1754751;81;20880;-78
2022/07/13 18:44:18;;;;;;;;;;;;;;;25.17;36.30;100495.41;1717651;83;20184;-78
2022/07/13 18:46:43;;;;;;;;;;;;;;;25.07;36.41;100493.98;1743352;81;21698;-78
2022/07/13 18:49:09;;;;;;;;;;;;;;;24.94;36.54;100486.25;1765016;81;20163;-78
2022/07/13 18:51:35;;;;;;;;;;;;;;;24.82;36.70;100491.03;1759305;81;20261;-78
2022/07/13 18:54:02;;;;;;;;;;;;;;;24.68;36.90;100495.28;1761747;81;20186;-78
2022/07/13 18:56:28;;;;;;;;;;;;;;;24.53;37.13;100499.23;1764524;81;20518;-78
2022/07/13 18:58:54;;;;;;;;;;;;;;;24.38;37.39;100500.47;1763527;81;21569;-78
2022/07/13 19:01:20;;;;;;;;;;;;;;;24.20;37.63;100494.84;1746698;81;20322;-78
2022/07/13 19:03:46;;;;;;;;;;;;;;;24.04;37.90;100497.90;1761473;81;20167;-78
2022/07/13 19:06:13;;;;;;;;;;;;;;;23.86;38.17;100499.59;1755718;81;20163;-78
2022/07/13 19:08:38;;;;;;;;;;;;;;;23.68;38.46;100494.49;1762438;81;20179;-78
2022/07/13 19:11:06;;;;;;;;;;;;;;;23.52;38.74;100496.72;1754186;80;21980;-78
2022/07/13 19:13:33;;;;;;;;;;;;;;;23.33;39.01;100495.62;1752097;81;20189;-78
2022/07/13 19:15:59;;;;;;;;;;;;;;;23.14;39.33;100499.72;1766605;81;20161;-78
2022/07/13 19:18:25;;;;;;;;;;;;;;;22.96;39.67;100489.09;1762566;81;20569;-78
2022/07/13 19:20:51;;;;;;;;;;;;;;;22.82;39.99;100493.22;1756328;81;20187;-77
2022/07/13 19:23:17;;;;;;;;;;;;;;;22.66;40.26;100492.67;1764465;81;21026;-77
2022/07/13 19:28:27;;;;;;;;;;;;;;;22.36;40.74;100496.50;1762618;81;20184;-77
2022/07/13 19:30:54;;;;;;;;;;;;;;;22.24;41.05;100503.88;1764280;81;20215;-78
2022/07/13 19:33:20;;;;;;;;;;;;;;;22.10;41.25;100498.44;1764484;81;20194;-77
2022/07/13 19:35:46;;;;;;;;;;;;;;;21.98;41.44;100499.04;1745375;81;21598;-77
2022/07/13 19:38:12;;;;;;;;;;;;;;;21.85;41.68;100491.95;1763365;81;20149;-77
2022/07/13 19:40:38;;;;;;;;;;;;;;;21.72;41.92;100491.41;1753208;81;20214;-77
2022/07/13 19:43:04;;;;;;;;;;;;;;;21.62;42.15;100484.42;1739960;80;20465;-77
2022/07/13 19:45:30;;;;;;;;;;;;;;;21.47;42.35;100468.63;1764292;81;20235;-77
2022/07/13 19:47:57;;;;;;;;;;;;;;;21.40;42.64;100474.72;1766531;81;21167;-77
2022/07/13 19:50:23;;;;;;;;;;;;;;;21.36;42.85;100470.30;1754205;81;20471;-76
2022/07/13 19:52:49;;;;;;;;;;;;;;;21.33;43.05;100469.43;1760910;80;20448;-76
2022/07/13 19:55:14;;;;;;;;;;;;;;;21.32;43.20;100470.48;1747732;81;20178;-76
2022/07/13 19:57:41;;;;;;;;;;;;;;;21.37;43.19;100469.25;1715226;83;20173;-77
2022/07/13 20:00:11;;;;;;;;;;;;;;;21.45;43.10;100474.02;1691973;83;21096;-76
2022/07/13 20:02:40;;;;;;;;;;;;;;;21.46;43.06;100471.61;1703909;83;20175;-76
2022/07/13 20:05:08;;;;;;;;;;;;;;;21.45;43.06;100474.02;1751472;81;20179;-76
2022/07/13 20:07:35;;;;;;;;;;;;;;;21.35;43.18;100470.03;1754520;81;20168;-77
2022/07/13 20:10:01;;;;;;;;;;;;;;;21.29;43.31;100465.54;1727760;81;20164;-76
2022/07/13 20:12:27;;;;;;;;;;;;;;;21.25;43.44;100471.14;1728117;81;21800;-76
2022/07/13 20:14:53;;;;;;;;;;;;;;;21.20;43.63;100472.41;1685957;83;20191;-76
2022/07/13 20:17:19;;;;;;;;;;;;;;;21.16;43.75;100470.39;1697189;83;20215;-76
2022/07/13 20:19:45;;;;;;;;;;;;;;;21.11;43.90;100473.80;1762130;80;20281;-76
2022/07/13 20:22:12;;;;;;;;;;;;;;;21.07;44.03;100472.62;1759961;81;20218;-76
2022/07/13 20:24:38;;;;;;;;;;;;;;;21.00;44.24;100469.20;1764571;81;21072;-76
2022/07/13 20:27:04;;;;;;;;;;;;;;;20.98;44.44;100467.24;1766865;80;20191;-76
2022/07/13 20:29:30;;;;;;;;;;;;;;;20.97;44.58;100465.59;1761420;81;20502;-76
2022/07/13 20:31:57;;;;;;;;;;;;;;;20.95;44.69;100466.36;1741331;81;38825;-76
2022/07/13 20:34:23;;;;;;;;;;;;;;;20.92;44.75;100470.38;1763623;81;20149;-76
2022/07/13 20:36:49;;;;;;;;;;;;;;;20.92;44.86;100466.84;1760088;81;21129;-76
2022/07/13 20:39:15;;;;;;;;;;;;;;;20.92;44.96;100465.48;1763014;81;20282;-76
2022/07/13 20:41:41;;;;;;;;;;;;;;;20.91;45.05;100470.61;1762713;81;20312;-77
2022/07/13 20:44:07;;;;;;;;;;;;;;;20.92;45.08;100466.84;1758797;80;20682;-77
2022/07/13 20:46:33;;;;;;;;;;;;;;;20.93;45.21;100466.59;1752986;81;20259;-77
2022/07/13 20:48:59;;;;;;;;;;;;;;;20.93;45.34;100463.08;1729463;81;21128;-77
2022/07/13 20:51:25;;;;;;;;;;;;;;;20.94;45.43;100460.11;1769998;81;20164;-77
2022/07/13 20:53:51;;;;;;;;;;;;;;;20.97;45.49;100458.80;1765952;81;20242;-77
2022/07/13 20:56:17;;;;;;;;;;;;;;;20.99;45.61;100458.06;1765350;81;20159;-77
2022/07/13 20:58:43;;;;;;;;;;;;;;;20.99;45.72;100458.06;1764061;81;20234;-77
2022/07/13 21:01:09;;;;;;;;;;;;;;;20.99;45.82;100460.77;1749866;81;21117;-77
2022/07/13 21:03:35;;;;;;;;;;;;;;;21.00;45.85;100462.43;1749421;81;20240;-77
2022/07/13 21:06:01;;;;;;;;;;;;;;;21.00;45.87;100461.08;1749585;81;20167;-77
2022/07/13 21:08:27;;;;;;;;;;;;;;;21.01;45.89;100459.98;1749317;81;20190;-77
2022/07/13 21:10:54;;;;;;;;;;;;;;;21.01;45.92;100461.88;1746899;81;20174;-77
2022/07/13 21:13:20;;;;;;;;;;;;;;;21.01;45.99;100453.73;1754145;81;21913;-77
2022/07/13 21:15:46;;;;;;;;;;;;;;;21.00;46.01;100457.01;1757870;80;20169;-77
2022/07/13 21:18:12;;;;;;;;;;;;;;;20.99;46.01;100455.34;1756958;81;20775;-77
2022/07/13 21:20:38;;;;;;;;;;;;;;;21.02;45.98;100447.26;1762011;81;20198;-77
2022/07/13 21:23:03;;;;;;;;;;;;;;;21.01;45.91;100449.14;1762242;81;20187;-77
2022/07/13 21:28:13;;;;;;;;;;;;;;;20.97;45.84;100442.54;1766301;81;20407;-77
2022/07/13 21:30:39;;;;;;;;;;;;;;;20.92;45.84;100448.69;1756822;81;20858;-77
2022/07/13 21:33:05;;;;;;;;;;;;;;;20.89;45.86;100449.70;1770108;81;20266;-77
2022/07/13 21:35:31;;;;;;;;;;;;;;;20.84;45.88;100444.14;1769727;81;20250;-77
2022/07/13 21:37:57;;;;;;;;;;;;;;;20.81;45.89;100440.55;1770160;81;21289;-77
2022/07/13 21:40:22;;;;;;;;;;;;;;;20.80;45.89;100436.18;1769121;81;20183;-77
2022/07/13 21:42:48;;;;;;;;;;;;;;;20.78;45.87;100427.47;1760247;81;20806;-77
2022/07/13 21:45:14;;;;;;;;;;;;;;;20.77;45.87;100435.30;1766416;81;20254;-77
2022/07/13 21:47:40;;;;;;;;;;;;;;;20.75;45.88;100432.84;1766846;81;20760;-77
2022/07/13 21:50:11;;;;;;;;;;;;;;;20.75;45.87;100437.44;1759358;81;21125;-77
2022/07/13 21:52:35;;;;;;;;;;;;;;;20.75;45.84;100434.72;1748600;81;20157;-77
2022/07/13 21:55:05;;;;;;;;;;;;;;;20.75;45.80;100432.84;1766803;81;20157;-78
2022/07/13 21:57:31;;;;;;;;;;;;;;;20.76;45.80;100433.11;1754212;81;20428;-76
2022/07/13 21:59:57;;;;;;;;;;;;;;;20.78;45.82;100432.89;1758859;81;20160;-77
2022/07/13 22:02:23;;;;;;;;;;;;;;;20.82;45.79;100435.43;1763904;81;21129;-77
2022/07/13 22:05:11;;;;;;;;;;;;;;;20.86;45.76;100427.13;1764853;81;20152;-77